Mackinaw City, MI

10:47 PM EST on December 25, 2014 (GMT -0500)
Harbor Springs | Change Station
CLOSE
Current Station
Airport
Location: Harbor Springs,
Elevation: 686 ft
Nearby Weather Stations

Elev 686 ft 45.43 °N, 84.91 °W | Updated 13 minutes ago

Overcast
Overcast
35 °F
Feels Like 29 °F
N
8
Wind Variable Wind from SW

Today
High -- | Low -- °F
--% Chance of Precip.
Yesterday
High -- | Low -- °F
Precip. -- in
8:18 AM 4:59 PM
Waxing Crescent, 22% visible
Pressure 29.95 in
Visibility 7.0 miles
Clouds Overcast 1500 ft
Windchill 29 °F
Dew Point 32 °F
Humidity 89%
Rainfall 0.00 in
Snow Depth Not available.
UV 0 out of 12
Pollen .10 out of 12
Air Quality Not available.
Flu Activity Not available.
METAR KMGN 260334Z AUTO 22007KT 7SM DZ OVC015 01/00 A2995 RMK AO2 T00190002

More Conditions Fewer Conditions

Pressure 29.95 in
Visibility 7.0 miles
Clouds Overcast 1500 ft
Windchill 29 °F
Dew Point 32 °F
Humidity 89%
Rainfall 0.00 in
Snow Depth Not available.
UV 0 out of 12
Pollen .10 out of 12
Air Quality Not available.
Flu Activity Not available.
METAR KMGN 260334Z AUTO 22007KT 7SM DZ OVC015 01/00 A2995 RMK AO2 T00190002

More Conditions Fewer Conditions

Nowcast | as of 10:00 PM EST on December 25, 2014

At 11 PM...mostly cloudy. Sprinkles and flurries. Temperature 35. Southwest winds 10 mph. At 1 am...mostly cloudy. Temperature 34. Southwest winds 8 mph. At 3 am...mostly cloudy. Temperature 33. Southwest winds 7 mph. At 5 am...mostly cloudy. Temperature 33. Southwest winds 7 mph.

×

10-Day Weather Forecast

Almanac

Astronomy

Dec. 25, 2014 Rise Set
Actual Time
Civil Twilight
Nautical Twilight
Astronomical Twilight
Moon
Length of Visible Light
Length of Day
Tomorrow will be .
, % of the Moon is Illuminated

Today's Extremes

State Highs State Lows

Community

WunderPhotos

Upload Photos

1,780,534 photos uploaded!

WunderBlogs® & News

Nearby

Air Quality

  Air Quality AQ Index Pollutant
Not available.

Snow Depth

Station Depth Elevation

Earthquake Activity

City Distance Mag. Time & Date
Minimum magnitude displayed is 2.5.

Coastal Water Temperatures

Place Temperature

Nearby Weather Stations